sensor_id;sensor_type;location;lat;lon;timestamp;P1;durP1;ratioP1;P2;durP2;ratioP2
66478;SDS011;53294;47.912;13.526;2022-08-07T00:01:16;4.80;;;3.58;;
66478;SDS011;53294;47.912;13.526;2022-08-07T00:04:04;5.47;;;3.70;;
66478;SDS011;53294;47.912;13.526;2022-08-07T00:06:34;5.65;;;3.33;;
66478;SDS011;53294;47.912;13.526;2022-08-07T00:09:02;6.60;;;3.47;;
66478;SDS011;53294;47.912;13.526;2022-08-07T00:11:46;5.00;;;3.38;;
66478;SDS011;53294;47.912;13.526;2022-08-07T00:14:23;5.25;;;3.22;;
66478;SDS011;53294;47.912;13.526;2022-08-07T00:16:59;5.53;;;3.67;;
66478;SDS011;53294;47.912;13.526;2022-08-07T00:19:28;4.00;;;2.87;;
66478;SDS011;53294;47.912;13.526;2022-08-07T00:22:16;5.68;;;3.83;;
66478;SDS011;53294;47.912;13.526;2022-08-07T00:25:01;6.32;;;4.80;;
66478;SDS011;53294;47.912;13.526;2022-08-07T00:27:30;7.40;;;5.47;;
66478;SDS011;53294;47.912;13.526;2022-08-07T00:30:16;7.50;;;5.80;;
66478;SDS011;53294;47.912;13.526;2022-08-07T00:32:57;9.18;;;6.57;;
66478;SDS011;53294;47.912;13.526;2022-08-07T00:35:25;8.73;;;6.57;;
66478;SDS011;53294;47.912;13.526;2022-08-07T00:37:55;7.80;;;6.32;;
66478;SDS011;53294;47.912;13.526;2022-08-07T00:40:23;7.50;;;6.10;;
66478;SDS011;53294;47.912;13.526;2022-08-07T00:43:06;9.98;;;6.47;;
66478;SDS011;53294;47.912;13.526;2022-08-07T00:45:57;12.15;;;7.70;;
66478;SDS011;53294;47.912;13.526;2022-08-07T00:48:24;6.70;;;5.38;;
66478;SDS011;53294;47.912;13.526;2022-08-07T00:53:25;7.28;;;5.85;;
66478;SDS011;53294;47.912;13.526;2022-08-07T00:56:04;8.02;;;5.50;;
66478;SDS011;53294;47.912;13.526;2022-08-07T00:58:42;7.10;;;5.38;;
66478;SDS011;53294;47.912;13.526;2022-08-07T01:03:39;6.20;;;4.60;;
66478;SDS011;53294;47.912;13.526;2022-08-07T01:06:25;10.82;;;8.82;;
66478;SDS011;53294;47.912;13.526;2022-08-07T01:08:53;7.30;;;5.57;;
66478;SDS011;53294;47.912;13.526;2022-08-07T01:11:23;11.82;;;8.50;;
66478;SDS011;53294;47.912;13.526;2022-08-07T01:14:10;8.43;;;7.10;;
66478;SDS011;53294;47.912;13.526;2022-08-07T01:16:40;10.15;;;7.68;;
66478;SDS011;53294;47.912;13.526;2022-08-07T01:19:13;7.38;;;6.35;;
66478;SDS011;53294;47.912;13.526;2022-08-07T01:21:45;8.02;;;6.22;;
66478;SDS011;53294;47.912;13.526;2022-08-07T01:24:13;10.48;;;7.97;;
66478;SDS011;53294;47.912;13.526;2022-08-07T01:26:47;9.57;;;7.63;;
66478;SDS011;53294;47.912;13.526;2022-08-07T01:29:18;10.90;;;8.82;;
66478;SDS011;53294;47.912;13.526;2022-08-07T01:31:47;6.43;;;5.63;;
66478;SDS011;53294;47.912;13.526;2022-08-07T01:34:15;9.32;;;8.32;;
66478;SDS011;53294;47.912;13.526;2022-08-07T01:36:44;12.27;;;10.18;;
66478;SDS011;53294;47.912;13.526;2022-08-07T01:39:26;9.13;;;7.13;;
66478;SDS011;53294;47.912;13.526;2022-08-07T01:44:53;10.50;;;8.48;;
66478;SDS011;53294;47.912;13.526;2022-08-07T01:47:20;12.48;;;10.20;;
66478;SDS011;53294;47.912;13.526;2022-08-07T01:50:07;12.73;;;9.00;;
66478;SDS011;53294;47.912;13.526;2022-08-07T01:52:35;10.00;;;8.82;;
66478;SDS011;53294;47.912;13.526;2022-08-07T01:55:14;15.35;;;13.18;;
66478;SDS011;53294;47.912;13.526;2022-08-07T01:57:49;14.20;;;11.27;;
66478;SDS011;53294;47.912;13.526;2022-08-07T02:00:38;14.73;;;10.90;;
66478;SDS011;53294;47.912;13.526;2022-08-07T02:03:14;11.40;;;10.20;;
66478;SDS011;53294;47.912;13.526;2022-08-07T02:05:56;11.13;;;9.48;;
66478;SDS011;53294;47.912;13.526;2022-08-07T02:08:45;11.18;;;8.77;;
66478;SDS011;53294;47.912;13.526;2022-08-07T02:11:19;10.65;;;9.43;;
66478;SDS011;53294;47.912;13.526;2022-08-07T02:14:06;10.65;;;8.95;;
66478;SDS011;53294;47.912;13.526;2022-08-07T02:16:35;15.07;;;11.15;;
66478;SDS011;53294;47.912;13.526;2022-08-07T02:19:05;13.55;;;10.30;;
66478;SDS011;53294;47.912;13.526;2022-08-07T02:21:55;15.88;;;12.52;;
66478;SDS011;53294;47.912;13.526;2022-08-07T02:24:24;12.15;;;9.05;;
66478;SDS011;53294;47.912;13.526;2022-08-07T02:26:55;13.07;;;10.07;;
66478;SDS011;53294;47.912;13.526;2022-08-07T02:29:26;12.77;;;9.32;;
66478;SDS011;53294;47.912;13.526;2022-08-07T02:31:55;11.38;;;9.45;;
66478;SDS011;53294;47.912;13.526;2022-08-07T02:34:24;12.27;;;10.23;;
66478;SDS011;53294;47.912;13.526;2022-08-07T02:36:53;12.82;;;10.85;;
66478;SDS011;53294;47.912;13.526;2022-08-07T02:39:25;14.10;;;11.45;;
66478;SDS011;53294;47.912;13.526;2022-08-07T02:42:12;12.02;;;10.73;;
66478;SDS011;53294;47.912;13.526;2022-08-07T02:44:42;11.90;;;9.68;;
66478;SDS011;53294;47.912;13.526;2022-08-07T02:47:13;12.47;;;10.53;;
66478;SDS011;53294;47.912;13.526;2022-08-07T02:49:48;12.98;;;10.52;;
66478;SDS011;53294;47.912;13.526;2022-08-07T02:52:26;11.18;;;9.75;;
66478;SDS011;53294;47.912;13.526;2022-08-07T02:54:59;9.18;;;8.20;;
66478;SDS011;53294;47.912;13.526;2022-08-07T02:57:29;10.82;;;8.45;;
66478;SDS011;53294;47.912;13.526;2022-08-07T03:00:00;9.43;;;7.72;;
66478;SDS011;53294;47.912;13.526;2022-08-07T03:02:30;13.48;;;10.30;;
66478;SDS011;53294;47.912;13.526;2022-08-07T03:04:59;10.73;;;8.98;;
66478;SDS011;53294;47.912;13.526;2022-08-07T03:07:32;13.32;;;9.25;;
66478;SDS011;53294;47.912;13.526;2022-08-07T03:10:19;12.68;;;9.10;;
66478;SDS011;53294;47.912;13.526;2022-08-07T03:12:48;13.15;;;9.85;;
66478;SDS011;53294;47.912;13.526;2022-08-07T03:15:17;11.05;;;9.48;;
66478;SDS011;53294;47.912;13.526;2022-08-07T03:18:04;14.30;;;9.55;;
66478;SDS011;53294;47.912;13.526;2022-08-07T03:20:31;10.10;;;8.55;;
66478;SDS011;53294;47.912;13.526;2022-08-07T03:22:59;11.32;;;9.52;;
66478;SDS011;53294;47.912;13.526;2022-08-07T03:25:29;9.30;;;7.78;;
66478;SDS011;53294;47.912;13.526;2022-08-07T03:28:11;11.93;;;9.50;;
66478;SDS011;53294;47.912;13.526;2022-08-07T03:30:58;12.27;;;10.25;;
66478;SDS011;53294;47.912;13.526;2022-08-07T03:33:58;10.02;;;8.60;;
66478;SDS011;53294;47.912;13.526;2022-08-07T03:36:27;11.95;;;7.75;;
66478;SDS011;53294;47.912;13.526;2022-08-07T03:38:57;13.73;;;10.50;;
66478;SDS011;53294;47.912;13.526;2022-08-07T03:41:31;10.75;;;8.32;;
66478;SDS011;53294;47.912;13.526;2022-08-07T03:44:12;13.35;;;9.52;;
66478;SDS011;53294;47.912;13.526;2022-08-07T03:46:40;11.20;;;8.85;;
66478;SDS011;53294;47.912;13.526;2022-08-07T03:49:28;8.07;;;6.88;;
66478;SDS011;53294;47.912;13.526;2022-08-07T03:51:56;10.57;;;7.85;;
66478;SDS011;53294;47.912;13.526;2022-08-07T03:54:27;10.05;;;7.25;;
66478;SDS011;53294;47.912;13.526;2022-08-07T03:57:14;11.27;;;7.95;;
66478;SDS011;53294;47.912;13.526;2022-08-07T04:00:02;8.98;;;6.88;;
66478;SDS011;53294;47.912;13.526;2022-08-07T04:02:31;10.15;;;8.45;;
66478;SDS011;53294;47.912;13.526;2022-08-07T04:04:58;9.93;;;8.02;;
66478;SDS011;53294;47.912;13.526;2022-08-07T04:07:25;9.30;;;7.28;;
66478;SDS011;53294;47.912;13.526;2022-08-07T04:10:07;13.63;;;9.37;;
66478;SDS011;53294;47.912;13.526;2022-08-07T04:12:44;11.90;;;7.82;;
66478;SDS011;53294;47.912;13.526;2022-08-07T04:15:12;9.82;;;8.07;;
66478;SDS011;53294;47.912;13.526;2022-08-07T04:17:41;11.18;;;8.40;;
66478;SDS011;53294;47.912;13.526;2022-08-07T04:20:29;9.98;;;7.20;;
66478;SDS011;53294;47.912;13.526;2022-08-07T04:23:00;9.07;;;7.55;;
66478;SDS011;53294;47.912;13.526;2022-08-07T04:25:32;7.60;;;5.90;;
66478;SDS011;53294;47.912;13.526;2022-08-07T04:28:08;8.27;;;6.43;;
66478;SDS011;53294;47.912;13.526;2022-08-07T04:30:38;7.50;;;5.22;;
66478;SDS011;53294;47.912;13.526;2022-08-07T04:33:22;8.65;;;5.95;;
66478;SDS011;53294;47.912;13.526;2022-08-07T04:35:50;8.93;;;5.95;;
66478;SDS011;53294;47.912;13.526;2022-08-07T04:38:19;6.43;;;5.05;;
66478;SDS011;53294;47.912;13.526;2022-08-07T04:40:47;6.55;;;4.30;;
66478;SDS011;53294;47.912;13.526;2022-08-07T04:43:20;7.00;;;4.70;;
66478;SDS011;53294;47.912;13.526;2022-08-07T04:46:12;7.50;;;5.38;;
66478;SDS011;53294;47.912;13.526;2022-08-07T04:49:02;7.30;;;6.30;;
66478;SDS011;53294;47.912;13.526;2022-08-07T04:52:05;6.35;;;4.88;;
66478;SDS011;53294;47.912;13.526;2022-08-07T04:54:56;9.10;;;5.65;;
66478;SDS011;53294;47.912;13.526;2022-08-07T05:01:23;6.65;;;4.63;;
66478;SDS011;53294;47.912;13.526;2022-08-07T05:04:13;7.10;;;5.22;;
66478;SDS011;53294;47.912;13.526;2022-08-07T05:06:52;6.20;;;4.72;;
66478;SDS011;53294;47.912;13.526;2022-08-07T05:15:21;7.50;;;5.45;;
66478;SDS011;53294;47.912;13.526;2022-08-07T05:17:53;6.50;;;4.70;;
66478;SDS011;53294;47.912;13.526;2022-08-07T05:20:30;8.48;;;6.75;;
66478;SDS011;53294;47.912;13.526;2022-08-07T05:23:02;8.02;;;6.05;;
66478;SDS011;53294;47.912;13.526;2022-08-07T05:25:41;8.57;;;5.53;;
66478;SDS011;53294;47.912;13.526;2022-08-07T05:28:31;6.72;;;5.70;;
66478;SDS011;53294;47.912;13.526;2022-08-07T05:31:00;9.80;;;6.30;;
66478;SDS011;53294;47.912;13.526;2022-08-07T05:33:29;7.22;;;5.57;;
66478;SDS011;53294;47.912;13.526;2022-08-07T05:36:00;8.48;;;6.20;;
66478;SDS011;53294;47.912;13.526;2022-08-07T05:38:30;7.93;;;5.57;;
66478;SDS011;53294;47.912;13.526;2022-08-07T05:41:18;8.45;;;5.38;;
66478;SDS011;53294;47.912;13.526;2022-08-07T05:43:49;5.95;;;5.05;;
66478;SDS011;53294;47.912;13.526;2022-08-07T05:46:37;6.90;;;5.35;;
66478;SDS011;53294;47.912;13.526;2022-08-07T05:49:08;5.63;;;4.38;;
66478;SDS011;53294;47.912;13.526;2022-08-07T05:51:39;8.02;;;4.47;;
66478;SDS011;53294;47.912;13.526;2022-08-07T05:54:08;6.50;;;5.32;;
66478;SDS011;53294;47.912;13.526;2022-08-07T05:56:56;6.43;;;4.70;;
66478;SDS011;53294;47.912;13.526;2022-08-07T05:59:24;5.53;;;4.32;;
66478;SDS011;53294;47.912;13.526;2022-08-07T06:01:52;5.35;;;4.13;;
66478;SDS011;53294;47.912;13.526;2022-08-07T06:04:22;7.07;;;4.70;;
66478;SDS011;53294;47.912;13.526;2022-08-07T06:06:55;5.95;;;4.70;;
66478;SDS011;53294;47.912;13.526;2022-08-07T06:09:29;9.40;;;4.65;;
66478;SDS011;53294;47.912;13.526;2022-08-07T06:12:16;5.43;;;3.78;;
66478;SDS011;53294;47.912;13.526;2022-08-07T06:14:52;5.45;;;4.05;;
66478;SDS011;53294;47.912;13.526;2022-08-07T06:17:28;5.00;;;3.95;;
66478;SDS011;53294;47.912;13.526;2022-08-07T06:20:02;5.95;;;3.72;;
66478;SDS011;53294;47.912;13.526;2022-08-07T06:22:30;7.63;;;4.03;;
66478;SDS011;53294;47.912;13.526;2022-08-07T06:25:05;5.78;;;4.25;;
66478;SDS011;53294;47.912;13.526;2022-08-07T06:27:35;4.65;;;3.38;;
66478;SDS011;53294;47.912;13.526;2022-08-07T06:30:22;6.63;;;4.60;;
66478;SDS011;53294;47.912;13.526;2022-08-07T06:33:01;5.07;;;3.58;;
66478;SDS011;53294;47.912;13.526;2022-08-07T06:35:29;5.68;;;3.92;;
66478;SDS011;53294;47.912;13.526;2022-08-07T06:38:13;6.30;;;3.92;;
66478;SDS011;53294;47.912;13.526;2022-08-07T06:40:46;5.22;;;3.85;;
66478;SDS011;53294;47.912;13.526;2022-08-07T06:43:19;7.63;;;4.68;;
66478;SDS011;53294;47.912;13.526;2022-08-07T06:45:48;5.03;;;3.80;;
66478;SDS011;53294;47.912;13.526;2022-08-07T06:48:16;5.53;;;3.90;;
66478;SDS011;53294;47.912;13.526;2022-08-07T06:50:50;4.95;;;3.92;;
66478;SDS011;53294;47.912;13.526;2022-08-07T06:53:19;5.80;;;3.90;;
66478;SDS011;53294;47.912;13.526;2022-08-07T06:56:08;5.82;;;3.65;;
66478;SDS011;53294;47.912;13.526;2022-08-07T06:58:41;5.32;;;3.58;;
66478;SDS011;53294;47.912;13.526;2022-08-07T07:01:28;7.25;;;4.15;;
66478;SDS011;53294;47.912;13.526;2022-08-07T07:04:14;5.65;;;3.53;;
66478;SDS011;53294;47.912;13.526;2022-08-07T07:06:59;5.53;;;3.65;;
66478;SDS011;53294;47.912;13.526;2022-08-07T07:09:47;6.68;;;4.53;;
66478;SDS011;53294;47.912;13.526;2022-08-07T07:21:03;5.13;;;3.80;;
66478;SDS011;53294;47.912;13.526;2022-08-07T07:23:45;8.45;;;4.43;;
66478;SDS011;53294;47.912;13.526;2022-08-07T07:26:33;5.80;;;3.60;;
66478;SDS011;53294;47.912;13.526;2022-08-07T07:29:12;5.10;;;3.40;;
66478;SDS011;53294;47.912;13.526;2022-08-07T07:32:04;5.95;;;4.53;;
66478;SDS011;53294;47.912;13.526;2022-08-07T07:34:33;5.20;;;3.80;;
66478;SDS011;53294;47.912;13.526;2022-08-07T07:37:04;5.45;;;4.18;;
66478;SDS011;53294;47.912;13.526;2022-08-07T07:39:55;6.25;;;3.88;;
66478;SDS011;53294;47.912;13.526;2022-08-07T07:42:25;5.63;;;3.75;;
66478;SDS011;53294;47.912;13.526;2022-08-07T07:44:58;5.85;;;4.00;;
66478;SDS011;53294;47.912;13.526;2022-08-07T07:47:28;5.15;;;3.63;;
66478;SDS011;53294;47.912;13.526;2022-08-07T07:50:17;5.00;;;3.80;;
66478;SDS011;53294;47.912;13.526;2022-08-07T07:53:04;5.10;;;3.67;;
66478;SDS011;53294;47.912;13.526;2022-08-07T07:55:50;6.43;;;3.75;;
66478;SDS011;53294;47.912;13.526;2022-08-07T07:58:22;7.88;;;4.60;;
66478;SDS011;53294;47.912;13.526;2022-08-07T08:00:53;5.50;;;3.90;;
66478;SDS011;53294;47.912;13.526;2022-08-07T08:03:23;4.85;;;3.85;;
66478;SDS011;53294;47.912;13.526;2022-08-07T08:06:11;6.15;;;3.75;;
66478;SDS011;53294;47.912;13.526;2022-08-07T08:08:39;5.30;;;3.85;;
66478;SDS011;53294;47.912;13.526;2022-08-07T08:11:09;5.07;;;3.70;;
66478;SDS011;53294;47.912;13.526;2022-08-07T08:13:56;6.68;;;4.00;;
66478;SDS011;53294;47.912;13.526;2022-08-07T08:16:28;5.53;;;4.00;;
66478;SDS011;53294;47.912;13.526;2022-08-07T08:19:16;6.28;;;3.90;;
66478;SDS011;53294;47.912;13.526;2022-08-07T08:22:09;4.90;;;3.40;;
66478;SDS011;53294;47.912;13.526;2022-08-07T08:24:58;6.25;;;3.85;;
66478;SDS011;53294;47.912;13.526;2022-08-07T08:28:08;6.15;;;3.65;;
66478;SDS011;53294;47.912;13.526;2022-08-07T08:33:27;5.80;;;3.40;;
66478;SDS011;53294;47.912;13.526;2022-08-07T08:35:58;6.20;;;3.70;;
66478;SDS011;53294;47.912;13.526;2022-08-07T08:38:31;4.97;;;3.63;;
66478;SDS011;53294;47.912;13.526;2022-08-07T08:44:38;4.88;;;3.20;;
66478;SDS011;53294;47.912;13.526;2022-08-07T08:53:53;4.30;;;2.97;;
66478;SDS011;53294;47.912;13.526;2022-08-07T08:56:46;6.25;;;3.33;;
66478;SDS011;53294;47.912;13.526;2022-08-07T08:59:23;4.43;;;3.33;;
66478;SDS011;53294;47.912;13.526;2022-08-07T09:02:21;6.00;;;3.13;;
66478;SDS011;53294;47.912;13.526;2022-08-07T09:05:17;5.53;;;3.08;;
66478;SDS011;53294;47.912;13.526;2022-08-07T09:11:16;5.00;;;3.10;;
66478;SDS011;53294;47.912;13.526;2022-08-07T09:17:48;5.20;;;3.10;;
66478;SDS011;53294;47.912;13.526;2022-08-07T09:38:24;6.00;;;3.22;;
66478;SDS011;53294;47.912;13.526;2022-08-07T09:41:40;4.35;;;3.15;;
66478;SDS011;53294;47.912;13.526;2022-08-07T09:53:09;4.90;;;2.63;;
66478;SDS011;53294;47.912;13.526;2022-08-07T10:07:04;4.72;;;2.90;;
66478;SDS011;53294;47.912;13.526;2022-08-07T10:13:20;4.38;;;2.80;;
66478;SDS011;53294;47.912;13.526;2022-08-07T10:22:11;4.90;;;2.60;;
66478;SDS011;53294;47.912;13.526;2022-08-07T10:30:49;4.65;;;2.85;;
66478;SDS011;53294;47.912;13.526;2022-08-07T10:33:28;5.80;;;3.20;;
66478;SDS011;53294;47.912;13.526;2022-08-07T10:36:40;5.13;;;3.33;;
66478;SDS011;53294;47.912;13.526;2022-08-07T10:39:32;5.03;;;2.70;;
66478;SDS011;53294;47.912;13.526;2022-08-07T10:51:17;3.60;;;2.60;;
66478;SDS011;53294;47.912;13.526;2022-08-07T10:54:15;5.85;;;3.15;;
66478;SDS011;53294;47.912;13.526;2022-08-07T11:02:59;5.00;;;2.80;;
66478;SDS011;53294;47.912;13.526;2022-08-07T11:08:42;6.38;;;2.85;;
66478;SDS011;53294;47.912;13.526;2022-08-07T11:11:34;4.45;;;2.42;;
66478;SDS011;53294;47.912;13.526;2022-08-07T11:14:21;4.75;;;2.80;;
66478;SDS011;53294;47.912;13.526;2022-08-07T11:17:23;3.75;;;2.60;;
66478;SDS011;53294;47.912;13.526;2022-08-07T11:20:18;5.78;;;3.13;;
66478;SDS011;53294;47.912;13.526;2022-08-07T11:22:52;6.53;;;3.20;;
66478;SDS011;53294;47.912;13.526;2022-08-07T11:29:05;4.57;;;2.80;;
66478;SDS011;53294;47.912;13.526;2022-08-07T11:34:37;3.97;;;2.70;;
66478;SDS011;53294;47.912;13.526;2022-08-07T11:58:31;5.75;;;2.88;;
66478;SDS011;53294;47.912;13.526;2022-08-07T12:07:16;4.25;;;2.90;;
66478;SDS011;53294;47.912;13.526;2022-08-07T12:09:55;5.25;;;2.50;;
66478;SDS011;53294;47.912;13.526;2022-08-07T12:12:39;4.72;;;2.70;;
66478;SDS011;53294;47.912;13.526;2022-08-07T12:18:13;3.72;;;2.60;;
66478;SDS011;53294;47.912;13.526;2022-08-07T12:21:09;3.92;;;2.75;;
66478;SDS011;53294;47.912;13.526;2022-08-07T12:24:19;7.80;;;3.20;;
66478;SDS011;53294;47.912;13.526;2022-08-07T12:27:13;4.30;;;2.58;;
66478;SDS011;53294;47.912;13.526;2022-08-07T12:29:55;4.25;;;2.78;;
66478;SDS011;53294;47.912;13.526;2022-08-07T12:35:14;4.97;;;2.75;;
66478;SDS011;53294;47.912;13.526;2022-08-07T12:37:45;3.65;;;2.65;;
66478;SDS011;53294;47.912;13.526;2022-08-07T12:40:34;5.13;;;2.85;;
66478;SDS011;53294;47.912;13.526;2022-08-07T12:43:15;5.88;;;4.00;;
66478;SDS011;53294;47.912;13.526;2022-08-07T12:46:14;4.75;;;3.33;;
66478;SDS011;53294;47.912;13.526;2022-08-07T12:52:12;4.82;;;2.75;;
66478;SDS011;53294;47.912;13.526;2022-08-07T12:54:58;3.95;;;2.78;;
66478;SDS011;53294;47.912;13.526;2022-08-07T12:57:36;3.58;;;2.67;;
66478;SDS011;53294;47.912;13.526;2022-08-07T13:00:26;5.57;;;2.47;;
66478;SDS011;53294;47.912;13.526;2022-08-07T13:03:09;3.08;;;2.35;;
66478;SDS011;53294;47.912;13.526;2022-08-07T13:12:36;3.60;;;2.50;;
66478;SDS011;53294;47.912;13.526;2022-08-07T13:15:39;3.28;;;2.47;;
66478;SDS011;53294;47.912;13.526;2022-08-07T13:21:11;3.72;;;2.22;;
66478;SDS011;53294;47.912;13.526;2022-08-07T13:26:56;4.20;;;2.60;;
66478;SDS011;53294;47.912;13.526;2022-08-07T13:44:13;3.38;;;2.08;;
66478;SDS011;53294;47.912;13.526;2022-08-07T13:46:52;4.32;;;2.75;;
66478;SDS011;53294;47.912;13.526;2022-08-07T13:49:25;4.28;;;2.40;;
66478;SDS011;53294;47.912;13.526;2022-08-07T13:52:17;4.57;;;2.67;;
66478;SDS011;53294;47.912;13.526;2022-08-07T13:55:00;4.35;;;2.30;;
66478;SDS011;53294;47.912;13.526;2022-08-07T13:57:37;4.13;;;2.30;;
66478;SDS011;53294;47.912;13.526;2022-08-07T14:00:31;5.32;;;2.30;;
66478;SDS011;53294;47.912;13.526;2022-08-07T14:03:23;3.90;;;2.38;;
66478;SDS011;53294;47.912;13.526;2022-08-07T14:06:12;5.90;;;2.67;;
66478;SDS011;53294;47.912;13.526;2022-08-07T14:08:43;3.65;;;2.05;;
66478;SDS011;53294;47.912;13.526;2022-08-07T14:11:20;4.40;;;2.40;;
66478;SDS011;53294;47.912;13.526;2022-08-07T14:13:50;4.78;;;2.40;;
66478;SDS011;53294;47.912;13.526;2022-08-07T14:16:24;3.10;;;2.17;;
66478;SDS011;53294;47.912;13.526;2022-08-07T14:18:56;3.75;;;2.40;;
66478;SDS011;53294;47.912;13.526;2022-08-07T14:21:31;4.97;;;2.33;;
66478;SDS011;53294;47.912;13.526;2022-08-07T14:24:27;4.10;;;2.10;;
66478;SDS011;53294;47.912;13.526;2022-08-07T14:27:00;3.42;;;2.30;;
66478;SDS011;53294;47.912;13.526;2022-08-07T14:29:50;3.05;;;2.08;;
66478;SDS011;53294;47.912;13.526;2022-08-07T14:33:10;3.88;;;2.28;;
66478;SDS011;53294;47.912;13.526;2022-08-07T14:35:34;2.88;;;2.10;;
66478;SDS011;53294;47.912;13.526;2022-08-07T14:38:12;3.50;;;2.25;;
66478;SDS011;53294;47.912;13.526;2022-08-07T14:40:57;2.55;;;1.98;;
66478;SDS011;53294;47.912;13.526;2022-08-07T14:43:29;3.30;;;2.00;;
66478;SDS011;53294;47.912;13.526;2022-08-07T14:46:19;3.30;;;2.20;;
66478;SDS011;53294;47.912;13.526;2022-08-07T14:48:57;3.40;;;2.35;;
66478;SDS011;53294;47.912;13.526;2022-08-07T14:51:46;4.47;;;2.20;;
66478;SDS011;53294;47.912;13.526;2022-08-07T14:54:31;3.97;;;2.70;;
66478;SDS011;53294;47.912;13.526;2022-08-07T14:57:11;3.63;;;2.17;;
66478;SDS011;53294;47.912;13.526;2022-08-07T14:59:44;3.53;;;2.20;;
66478;SDS011;53294;47.912;13.526;2022-08-07T15:02:31;4.22;;;2.60;;
66478;SDS011;53294;47.912;13.526;2022-08-07T15:05:02;3.53;;;2.30;;
66478;SDS011;53294;47.912;13.526;2022-08-07T15:07:45;2.92;;;2.00;;
66478;SDS011;53294;47.912;13.526;2022-08-07T15:10:21;4.25;;;2.50;;
66478;SDS011;53294;47.912;13.526;2022-08-07T15:13:02;3.35;;;2.20;;
66478;SDS011;53294;47.912;13.526;2022-08-07T15:15:40;4.18;;;2.58;;
66478;SDS011;53294;47.912;13.526;2022-08-07T15:18:33;4.00;;;2.28;;
66478;SDS011;53294;47.912;13.526;2022-08-07T15:21:10;3.88;;;2.70;;
66478;SDS011;53294;47.912;13.526;2022-08-07T15:24:02;3.42;;;2.30;;
66478;SDS011;53294;47.912;13.526;2022-08-07T15:27:02;2.78;;;2.03;;
66478;SDS011;53294;47.912;13.526;2022-08-07T15:29:39;5.03;;;2.60;;
66478;SDS011;53294;47.912;13.526;2022-08-07T15:32:27;4.03;;;2.20;;
66478;SDS011;53294;47.912;13.526;2022-08-07T15:35:21;3.75;;;2.47;;
66478;SDS011;53294;47.912;13.526;2022-08-07T15:38:10;3.25;;;2.20;;
66478;SDS011;53294;47.912;13.526;2022-08-07T15:40:57;3.50;;;2.38;;
66478;SDS011;53294;47.912;13.526;2022-08-07T15:43:58;5.45;;;2.40;;
66478;SDS011;53294;47.912;13.526;2022-08-07T15:46:29;3.90;;;2.30;;
66478;SDS011;53294;47.912;13.526;2022-08-07T15:49:18;2.95;;;2.10;;
66478;SDS011;53294;47.912;13.526;2022-08-07T15:52:18;3.30;;;1.83;;
66478;SDS011;53294;47.912;13.526;2022-08-07T15:54:56;3.80;;;1.90;;
66478;SDS011;53294;47.912;13.526;2022-08-07T15:57:28;3.38;;;2.42;;
66478;SDS011;53294;47.912;13.526;2022-08-07T16:00:14;3.38;;;2.30;;
66478;SDS011;53294;47.912;13.526;2022-08-07T16:03:00;4.00;;;2.33;;
66478;SDS011;53294;47.912;13.526;2022-08-07T16:05:29;3.50;;;2.00;;
66478;SDS011;53294;47.912;13.526;2022-08-07T16:08:07;3.53;;;1.90;;
66478;SDS011;53294;47.912;13.526;2022-08-07T16:10:59;3.25;;;2.00;;
66478;SDS011;53294;47.912;13.526;2022-08-07T16:13:51;3.40;;;2.00;;
66478;SDS011;53294;47.912;13.526;2022-08-07T16:19:32;3.55;;;1.90;;
66478;SDS011;53294;47.912;13.526;2022-08-07T16:25:52;3.42;;;2.10;;
66478;SDS011;53294;47.912;13.526;2022-08-07T16:28:20;2.85;;;1.90;;
66478;SDS011;53294;47.912;13.526;2022-08-07T16:40:43;5.88;;;2.20;;
66478;SDS011;53294;47.912;13.526;2022-08-07T16:46:37;3.00;;;2.05;;
66478;SDS011;53294;47.912;13.526;2022-08-07T16:49:42;4.80;;;2.30;;
66478;SDS011;53294;47.912;13.526;2022-08-07T17:00:50;3.33;;;2.17;;
66478;SDS011;53294;47.912;13.526;2022-08-07T17:03:46;2.95;;;2.00;;
66478;SDS011;53294;47.912;13.526;2022-08-07T17:07:07;3.15;;;2.38;;
66478;SDS011;53294;47.912;13.526;2022-08-07T17:09:52;2.38;;;1.80;;
66478;SDS011;53294;47.912;13.526;2022-08-07T17:12:47;3.60;;;2.00;;
66478;SDS011;53294;47.912;13.526;2022-08-07T17:15:37;3.83;;;2.40;;
66478;SDS011;53294;47.912;13.526;2022-08-07T17:18:21;3.58;;;2.20;;
66478;SDS011;53294;47.912;13.526;2022-08-07T17:20:53;4.25;;;2.55;;
66478;SDS011;53294;47.912;13.526;2022-08-07T17:26:10;2.80;;;2.08;;
66478;SDS011;53294;47.912;13.526;2022-08-07T17:34:15;2.70;;;2.08;;
66478;SDS011;53294;47.912;13.526;2022-08-07T17:37:25;3.40;;;2.20;;
66478;SDS011;53294;47.912;13.526;2022-08-07T17:40:21;3.22;;;2.13;;
66478;SDS011;53294;47.912;13.526;2022-08-07T17:43:05;2.85;;;2.20;;
66478;SDS011;53294;47.912;13.526;2022-08-07T17:45:49;3.50;;;2.40;;
66478;SDS011;53294;47.912;13.526;2022-08-07T17:48:22;4.47;;;2.75;;
66478;SDS011;53294;47.912;13.526;2022-08-07T17:51:17;4.13;;;2.70;;
66478;SDS011;53294;47.912;13.526;2022-08-07T17:56:33;3.28;;;2.17;;
66478;SDS011;53294;47.912;13.526;2022-08-07T17:59:22;3.72;;;2.47;;
66478;SDS011;53294;47.912;13.526;2022-08-07T18:02:03;3.50;;;2.40;;
66478;SDS011;53294;47.912;13.526;2022-08-07T18:09:53;3.42;;;2.30;;
66478;SDS011;53294;47.912;13.526;2022-08-07T18:18:22;3.78;;;2.40;;
66478;SDS011;53294;47.912;13.526;2022-08-07T18:24:05;3.63;;;2.60;;
66478;SDS011;53294;47.912;13.526;2022-08-07T18:38:25;4.65;;;3.00;;
66478;SDS011;53294;47.912;13.526;2022-08-07T18:41:27;4.68;;;2.90;;
66478;SDS011;53294;47.912;13.526;2022-08-07T18:47:04;3.97;;;2.58;;
66478;SDS011;53294;47.912;13.526;2022-08-07T18:59:10;3.38;;;2.67;;
66478;SDS011;53294;47.912;13.526;2022-08-07T19:05:31;3.78;;;2.50;;
66478;SDS011;53294;47.912;13.526;2022-08-07T19:08:28;4.28;;;2.67;;
66478;SDS011;53294;47.912;13.526;2022-08-07T19:11:25;4.00;;;2.95;;
66478;SDS011;53294;47.912;13.526;2022-08-07T19:18:10;5.00;;;2.70;;
66478;SDS011;53294;47.912;13.526;2022-08-07T19:23:57;3.72;;;2.80;;
66478;SDS011;53294;47.912;13.526;2022-08-07T19:26:32;3.85;;;2.72;;
66478;SDS011;53294;47.912;13.526;2022-08-07T19:29:23;4.07;;;2.70;;
66478;SDS011;53294;47.912;13.526;2022-08-07T19:32:10;4.32;;;2.80;;
66478;SDS011;53294;47.912;13.526;2022-08-07T19:34:58;3.83;;;2.92;;
66478;SDS011;53294;47.912;13.526;2022-08-07T19:37:27;4.05;;;2.75;;
66478;SDS011;53294;47.912;13.526;2022-08-07T19:40:15;5.05;;;2.88;;
66478;SDS011;53294;47.912;13.526;2022-08-07T19:45:25;4.68;;;3.20;;
66478;SDS011;53294;47.912;13.526;2022-08-07T19:48:13;4.60;;;3.45;;
66478;SDS011;53294;47.912;13.526;2022-08-07T19:50:49;4.90;;;3.33;;
66478;SDS011;53294;47.912;13.526;2022-08-07T19:53:19;4.13;;;2.90;;
66478;SDS011;53294;47.912;13.526;2022-08-07T19:56:07;3.30;;;2.65;;
66478;SDS011;53294;47.912;13.526;2022-08-07T19:58:56;4.55;;;2.90;;
66478;SDS011;53294;47.912;13.526;2022-08-07T20:01:24;3.67;;;2.80;;
66478;SDS011;53294;47.912;13.526;2022-08-07T20:04:13;4.28;;;3.17;;
66478;SDS011;53294;47.912;13.526;2022-08-07T20:07:02;5.18;;;3.55;;
66478;SDS011;53294;47.912;13.526;2022-08-07T20:12:28;5.13;;;3.25;;
66478;SDS011;53294;47.912;13.526;2022-08-07T20:15:01;4.32;;;3.13;;
66478;SDS011;53294;47.912;13.526;2022-08-07T20:17:46;4.95;;;3.53;;
66478;SDS011;53294;47.912;13.526;2022-08-07T20:20:29;4.15;;;3.20;;
66478;SDS011;53294;47.912;13.526;2022-08-07T20:22:59;4.82;;;3.22;;
66478;SDS011;53294;47.912;13.526;2022-08-07T20:25:48;5.18;;;3.38;;
66478;SDS011;53294;47.912;13.526;2022-08-07T20:28:18;4.32;;;3.22;;